createdAt,value
2023-04-15T00:02:00.846Z,99451.60
2023-04-15T00:04:37.496Z,99449.22
2023-04-15T00:07:05.964Z,99443.29
2023-04-15T00:09:34.322Z,99446.40
2023-04-15T00:12:03.004Z,99437.66
2023-04-15T00:14:34.835Z,99431.86
2023-04-15T00:17:04.351Z,99430.41
2023-04-15T00:19:33.466Z,99438.66
2023-04-15T00:22:06.335Z,99444.08
2023-04-15T00:24:34.512Z,99448.95
2023-04-15T00:27:02.627Z,99444.07
2023-04-15T00:29:36.416Z,99441.58
2023-04-15T00:32:04.605Z,99447.70
2023-04-15T00:34:32.668Z,99446.77
2023-04-15T00:37:01.566Z,99448.25
2023-04-15T00:39:29.709Z,99449.10
2023-04-15T00:41:57.832Z,99444.02
2023-04-15T00:44:26.131Z,99436.77
2023-04-15T00:46:55.104Z,99433.70
2023-04-15T00:49:26.458Z,99431.50
2023-04-15T00:51:54.580Z,99435.11
2023-04-15T00:54:24.740Z,99435.84
2023-04-15T00:56:52.930Z,99439.64
2023-04-15T00:59:22.096Z,99444.20
2023-04-15T01:01:50.298Z,99442.23
2023-04-15T01:04:20.517Z,99441.84
2023-04-15T01:06:50.103Z,99439.00
2023-04-15T01:09:21.573Z,99436.98
2023-04-15T01:11:51.073Z,99438.84
2023-04-15T01:14:20.142Z,99442.01
2023-04-15T01:16:48.207Z,99443.94
2023-04-15T01:19:17.800Z,99448.36
2023-04-15T01:21:46.248Z,99448.27
2023-04-15T01:24:16.654Z,99437.46
2023-04-15T01:26:47.402Z,99437.64
2023-04-15T01:29:15.739Z,99444.81
2023-04-15T01:31:52.331Z,99452.58
2023-04-15T01:34:21.787Z,99467.23
2023-04-15T01:36:51.456Z,99465.38
2023-04-15T01:39:20.326Z,99465.81
2023-04-15T01:41:49.466Z,99471.56
2023-04-15T01:44:17.804Z,99477.30
2023-04-15T01:46:45.939Z,99473.00
2023-04-15T01:49:14.613Z,99470.52
2023-04-15T01:51:42.960Z,99482.02
2023-04-15T01:54:11.348Z,99480.73
2023-04-15T01:56:42.362Z,99476.50
2023-04-15T01:59:11.189Z,99476.09
2023-04-15T02:01:46.961Z,99484.11
2023-04-15T02:04:17.504Z,99482.56
2023-04-15T02:06:46.209Z,99482.14
2023-04-15T02:09:16.214Z,99487.11
2023-04-15T02:11:47.506Z,99493.96
2023-04-15T02:14:16.442Z,99496.38
2023-04-15T02:16:46.570Z,99500.30
2023-04-15T02:19:17.791Z,99502.23
2023-04-15T02:21:45.681Z,99500.84
2023-04-15T02:24:13.845Z,99497.88
2023-04-15T02:26:49.488Z,99499.23
2023-04-15T02:29:18.337Z,99501.04
2023-04-15T02:31:50.456Z,99503.14
2023-04-15T02:34:20.482Z,99499.56
2023-04-15T02:36:49.964Z,99498.52
2023-04-15T02:39:18.863Z,99501.77
2023-04-15T02:41:53.254Z,99501.58
2023-04-15T02:44:25.037Z,99507.39
2023-04-15T02:46:54.998Z,99509.55
2023-04-15T02:49:25.990Z,99512.42
2023-04-15T02:51:54.288Z,99524.88
2023-04-15T02:54:26.323Z,99522.15
2023-04-15T02:56:58.325Z,99524.64
2023-04-15T02:59:27.231Z,99523.27
2023-04-15T03:01:56.818Z,99520.34
2023-04-15T03:04:25.318Z,99525.65
2023-04-15T03:06:56.322Z,99523.00
2023-04-15T03:09:25.308Z,99520.61
2023-04-15T03:11:54.989Z,99520.61
2023-04-15T03:14:27.180Z,99519.73
2023-04-15T03:16:56.438Z,99518.40
2023-04-15T03:19:25.779Z,99516.52
2023-04-15T03:21:57.273Z,99515.58
2023-04-15T03:24:26.347Z,99512.64
2023-04-15T03:26:55.428Z,99516.70
2023-04-15T03:29:24.504Z,99517.16
2023-04-15T03:32:01.414Z,99518.23
2023-04-15T03:34:32.482Z,99514.95
2023-04-15T03:37:00.580Z,99521.40
2023-04-15T03:39:28.735Z,99516.52
2023-04-15T03:41:56.708Z,99512.17
2023-04-15T03:44:32.942Z,99516.94
2023-04-15T03:47:01.321Z,99526.45
2023-04-15T03:49:29.377Z,99523.02
2023-04-15T03:52:02.306Z,99525.55
2023-04-15T03:54:31.323Z,99523.93
2023-04-15T03:57:02.456Z,99525.16
2023-04-15T03:59:32.634Z,99518.09
2023-04-15T04:02:00.915Z,99515.23
2023-04-15T04:04:29.352Z,99514.83
2023-04-15T04:06:57.963Z,99515.27
2023-04-15T04:09:26.080Z,99517.73
2023-04-15T04:11:54.122Z,99522.54
2023-04-15T04:14:29.369Z,99529.30
2023-04-15T04:16:57.826Z,99533.88
2023-04-15T04:19:25.877Z,99536.38
2023-04-15T04:21:57.008Z,99537.48
2023-04-15T04:24:25.099Z,99532.16
2023-04-15T04:28:24.233Z,99535.39
2023-04-15T04:30:55.892Z,99543.65
2023-04-15T04:33:25.720Z,99545.11
2023-04-15T04:35:53.772Z,99548.07
2023-04-15T04:38:24.829Z,99541.62
2023-04-15T04:40:56.228Z,99541.45
2023-04-15T04:43:24.426Z,99542.38
2023-04-15T04:45:57.122Z,99542.47
2023-04-15T04:48:25.740Z,99540.66
2023-04-15T04:50:54.185Z,99535.25
2023-04-15T04:53:22.232Z,99535.74
2023-04-15T04:55:50.458Z,99544.38
2023-04-15T04:58:18.463Z,99537.67
2023-04-15T05:00:46.623Z,99535.89
2023-04-15T05:03:15.031Z,99542.70
2023-04-15T05:05:43.626Z,99535.45
2023-04-15T05:08:12.710Z,99538.57
2023-04-15T05:10:41.376Z,99538.08
2023-04-15T05:13:09.594Z,99540.61
2023-04-15T05:15:40.011Z,99540.33
2023-04-15T05:18:12.483Z,99539.59
2023-04-15T05:20:42.071Z,99545.24
2023-04-15T05:23:13.717Z,99542.73
2023-04-15T05:25:44.563Z,99551.67
2023-04-15T05:28:12.720Z,99556.11
2023-04-15T05:30:42.187Z,99558.27
2023-04-15T05:33:11.335Z,99553.79
2023-04-15T05:35:40.269Z,99557.88
2023-04-15T05:40:39.928Z,99557.46
2023-04-15T05:43:50.587Z,99561.42
2023-04-15T05:46:19.886Z,99566.23
2023-04-15T05:48:48.537Z,99562.57
2023-04-15T05:51:16.900Z,99578.33
2023-04-15T05:53:46.919Z,99577.07
2023-04-15T05:56:14.916Z,99569.88
2023-04-15T05:58:43.243Z,99569.08
2023-04-15T06:03:49.066Z,99570.75
2023-04-15T06:06:17.678Z,99563.95
2023-04-15T06:08:47.174Z,99573.06
2023-04-15T06:11:22.098Z,99576.80
2023-04-15T06:13:50.967Z,99578.91
2023-04-15T06:16:19.226Z,99579.19
2023-04-15T06:18:50.084Z,99582.80
2023-04-15T06:21:18.233Z,99578.16
2023-04-15T06:23:46.476Z,99582.67
2023-04-15T06:26:14.809Z,99576.05
2023-04-15T06:28:44.210Z,99579.94
2023-04-15T06:31:12.295Z,99575.35
2023-04-15T06:33:44.468Z,99573.86
2023-04-15T06:36:12.776Z,99580.48
2023-04-15T06:41:28.856Z,99585.52
2023-04-15T06:43:56.957Z,99591.48
2023-04-15T06:46:26.860Z,99592.70
2023-04-15T06:48:55.200Z,99589.81
2023-04-15T06:51:26.571Z,99595.02
2023-04-15T06:53:58.637Z,99595.66
2023-04-15T06:56:27.427Z,99594.66
2023-04-15T06:58:55.482Z,99590.89
2023-04-15T07:01:24.645Z,99591.10
2023-04-15T07:03:54.908Z,99588.34
2023-04-15T07:06:22.878Z,99590.79
2023-04-15T07:08:53.446Z,99597.08
2023-04-15T07:13:59.261Z,99597.52
2023-04-15T07:16:30.036Z,99596.85
2023-04-15T07:19:00.481Z,99598.08
2023-04-15T07:21:29.687Z,99597.34
2023-04-15T07:24:01.892Z,99593.92
2023-04-15T07:26:35.663Z,99596.90
2023-04-15T07:29:04.250Z,99593.86
2023-04-15T07:31:32.816Z,99600.86
2023-04-15T07:34:01.260Z,99600.77
2023-04-15T07:36:31.621Z,99596.03
2023-04-15T07:39:02.382Z,99599.68
2023-04-15T07:41:31.951Z,99602.73
2023-04-15T07:44:02.959Z,99610.56
2023-04-15T07:46:31.416Z,99612.91
2023-04-15T07:49:03.987Z,99616.45
2023-04-15T07:51:32.445Z,99618.86
2023-04-15T07:56:32.821Z,99608.53
2023-04-15T07:59:04.864Z,99611.27
2023-04-15T08:01:35.926Z,99608.59
2023-04-15T08:04:04.226Z,99607.77
2023-04-15T08:06:33.741Z,99602.06
2023-04-15T08:09:03.374Z,99609.45
2023-04-15T08:11:33.870Z,99610.16
2023-04-15T08:14:07.672Z,99613.69
2023-04-15T08:16:40.942Z,99614.44
2023-04-15T08:19:11.730Z,99615.88
2023-04-15T08:21:41.132Z,99627.34
2023-04-15T08:24:09.608Z,99622.11
2023-04-15T08:26:43.906Z,99626.02
2023-04-15T08:29:15.766Z,99624.11
2023-04-15T08:31:45.884Z,99621.73
2023-04-15T08:34:14.187Z,99616.34
2023-04-15T08:36:43.233Z,99618.04
2023-04-15T08:39:14.486Z,99622.02
2023-04-15T08:41:52.843Z,99614.70
2023-04-15T08:44:21.047Z,99614.59
2023-04-15T08:46:53.377Z,99605.44
2023-04-15T08:49:22.994Z,99605.48
2023-04-15T08:51:51.076Z,99605.73
2023-04-15T08:54:22.952Z,99607.13
2023-04-15T08:56:51.054Z,99615.08
2023-04-15T08:59:22.089Z,99621.55
2023-04-15T09:01:51.539Z,99619.34
2023-04-15T09:04:19.938Z,99618.67
2023-04-15T09:06:48.911Z,99623.30
2023-04-15T09:09:17.204Z,99620.25
2023-04-15T09:11:50.073Z,99622.59
2023-04-15T09:14:18.419Z,99628.83
2023-04-15T09:17:00.156Z,99622.73
2023-04-15T09:19:28.866Z,99619.16
2023-04-15T09:21:59.201Z,99622.02
2023-04-15T09:24:37.642Z,99622.28
2023-04-15T09:27:06.205Z,99624.52
2023-04-15T09:29:34.880Z,99624.02
2023-04-15T09:32:13.426Z,99622.05
2023-04-15T09:34:41.932Z,99634.33
2023-04-15T09:37:11.293Z,99632.96
2023-04-15T09:39:52.242Z,99637.84
2023-04-15T09:42:27.538Z,99637.39
2023-04-15T09:44:55.591Z,99638.39
2023-04-15T09:47:41.899Z,99642.30
2023-04-15T09:50:14.683Z,99640.05
2023-04-15T09:52:45.843Z,99639.88
2023-04-15T09:55:14.668Z,99639.39
2023-04-15T09:57:46.081Z,99643.34
2023-04-15T10:00:18.330Z,99641.74
2023-04-15T10:02:50.054Z,99644.45
2023-04-15T10:05:18.157Z,99638.27
2023-04-15T10:07:48.451Z,99636.08
2023-04-15T10:10:16.883Z,99636.92
2023-04-15T10:12:45.441Z,99642.84
2023-04-15T10:15:16.706Z,99645.15
2023-04-15T10:17:46.437Z,99639.07
2023-04-15T10:20:15.586Z,99643.27
2023-04-15T10:22:44.296Z,99649.54
2023-04-15T10:25:14.061Z,99648.56
2023-04-15T10:27:42.331Z,99652.48
2023-04-15T10:30:11.782Z,99653.81
2023-04-15T10:32:41.662Z,99652.83
2023-04-15T10:35:09.827Z,99656.33
2023-04-15T10:37:39.919Z,99654.60
2023-04-15T10:40:28.713Z,99655.84
2023-04-15T10:42:59.803Z,99660.31
2023-04-15T10:45:29.151Z,99656.25
2023-04-15T10:47:58.200Z,99651.50
2023-04-15T10:53:03.600Z,99660.04
2023-04-15T10:55:33.012Z,99661.35
2023-04-15T10:58:02.197Z,99659.02
2023-04-15T11:00:32.322Z,99656.34
2023-04-15T11:03:06.923Z,99656.48
2023-04-15T11:05:41.663Z,99660.56
2023-04-15T11:08:10.762Z,99655.21
2023-04-15T11:10:39.334Z,99661.04
2023-04-15T11:15:43.189Z,99661.52
2023-04-15T11:18:21.068Z,99664.70
2023-04-15T11:20:50.584Z,99663.52
2023-04-15T11:23:19.760Z,99662.30
2023-04-15T11:25:49.122Z,99653.89
2023-04-15T11:28:17.177Z,99652.92
2023-04-15T11:30:46.016Z,99657.90
2023-04-15T11:33:14.393Z,99659.66
2023-04-15T11:35:43.182Z,99660.46
2023-04-15T11:38:13.184Z,99661.16
2023-04-15T11:40:43.824Z,99657.35
2023-04-15T11:43:21.027Z,99655.71
2023-04-15T11:45:51.593Z,99651.00
2023-04-15T11:48:31.677Z,99652.50
2023-04-15T11:51:04.341Z,99649.08
2023-04-15T11:53:49.798Z,99645.52
2023-04-15T11:56:22.021Z,99649.21
2023-04-15T11:58:57.264Z,99650.53
2023-04-15T12:01:35.488Z,99654.55
2023-04-15T12:04:06.606Z,99649.48
2023-04-15T12:06:39.405Z,99644.69
2023-04-15T12:09:13.995Z,99639.67
2023-04-15T12:11:51.258Z,99643.53
2023-04-15T12:14:28.484Z,99640.34
2023-04-15T12:17:05.079Z,99636.15
2023-04-15T12:19:37.731Z,99629.70
2023-04-15T12:22:15.549Z,99635.87
2023-04-15T12:24:47.117Z,99630.46
2023-04-15T12:27:17.846Z,99625.62
2023-04-15T12:29:45.951Z,99623.80
2023-04-15T12:32:21.067Z,99618.94
2023-04-15T12:34:53.956Z,99611.30
2023-04-15T12:37:22.211Z,99603.04
2023-04-15T12:42:31.527Z,99611.48
2023-04-15T12:44:59.525Z,99608.27
2023-04-15T12:47:27.960Z,99614.83
2023-04-15T12:49:56.816Z,99620.21
2023-04-15T12:52:25.682Z,99616.76
2023-04-15T12:54:53.774Z,99613.41
2023-04-15T12:57:22.425Z,99615.60
2023-04-15T12:59:50.690Z,99610.30
2023-04-15T13:02:21.396Z,99612.30
2023-04-15T13:04:50.451Z,99611.27
2023-04-15T13:07:18.847Z,99610.38
2023-04-15T13:09:46.971Z,99614.04
2023-04-15T13:12:16.379Z,99615.54
2023-04-15T13:14:44.546Z,99611.33
2023-04-15T13:17:12.765Z,99616.55
2023-04-15T13:19:40.905Z,99611.56
2023-04-15T13:22:09.360Z,99612.86
2023-04-15T13:24:39.412Z,99609.90
2023-04-15T13:29:51.678Z,99608.83
2023-04-15T13:34:57.148Z,99616.86
2023-04-15T13:37:28.500Z,99624.00
2023-04-15T13:39:57.502Z,99620.40
2023-04-15T13:44:51.890Z,99612.83
2023-04-15T13:47:20.641Z,99613.02
2023-04-15T13:49:48.770Z,99619.10
2023-04-15T13:52:16.948Z,99626.35
2023-04-15T13:54:45.656Z,99624.00
2023-04-15T13:57:15.025Z,99615.85
2023-04-15T13:59:44.279Z,99611.73
2023-04-15T14:02:15.242Z,99618.80
2023-04-15T14:04:43.928Z,99607.68
2023-04-15T14:07:13.200Z,99616.07
2023-04-15T14:09:43.276Z,99613.48
2023-04-15T14:12:12.326Z,99617.80
2023-04-15T14:14:41.386Z,99622.92
2023-04-15T14:17:09.636Z,99627.48
2023-04-15T14:19:37.789Z,99631.88
2023-04-15T14:22:06.291Z,99632.88
2023-04-15T14:24:37.388Z,99632.81
2023-04-15T14:27:06.489Z,99641.48
2023-04-15T14:29:34.906Z,99640.17
2023-04-15T14:32:08.777Z,99647.46
2023-04-15T14:34:43.392Z,99648.02
2023-04-15T14:37:11.607Z,99647.77
2023-04-15T14:39:39.971Z,99644.48
2023-04-15T14:42:10.085Z,99652.60
2023-04-15T14:44:38.258Z,99652.80
2023-04-15T14:47:06.442Z,99660.21
2023-04-15T14:52:21.042Z,99667.75
2023-04-15T14:56:31.095Z,99670.60
2023-04-15T14:58:59.182Z,99671.09
2023-04-15T15:01:27.501Z,99661.80
2023-04-15T15:09:46.979Z,99655.36
2023-04-15T15:12:15.308Z,99652.14
2023-04-15T15:16:11.404Z,99657.36
2023-04-15T15:18:40.463Z,99658.17
2023-04-15T15:21:07.144Z,99655.23
2023-04-15T15:23:34.089Z,99660.64
2023-04-15T15:26:02.103Z,99655.17
2023-04-15T15:28:28.921Z,99649.60
2023-04-15T15:30:56.861Z,99655.02
2023-04-15T15:33:24.288Z,99655.91
2023-04-15T15:35:51.145Z,99650.75
2023-04-15T15:38:17.787Z,99653.71
2023-04-15T15:40:44.607Z,99656.30
2023-04-15T15:43:11.226Z,99655.48
2023-04-15T15:45:38.603Z,99654.54
2023-04-15T15:48:06.936Z,99657.50
2023-04-15T15:50:34.714Z,99653.33
2023-04-15T15:53:01.540Z,99646.05
2023-04-15T15:55:28.650Z,99651.73
2023-04-15T15:57:55.532Z,99653.14
2023-04-15T16:00:22.655Z,99652.34
2023-04-15T16:03:06.180Z,99651.29
2023-04-15T16:05:35.321Z,99640.42
2023-04-15T16:08:02.349Z,99638.58
2023-04-15T16:10:29.416Z,99638.74
2023-04-15T16:12:56.231Z,99633.91
2023-04-15T16:15:24.603Z,99634.63
2023-04-15T16:17:51.541Z,99635.79
2023-04-15T16:20:20.421Z,99649.17
2023-04-15T16:22:47.079Z,99662.00
2023-04-15T16:25:16.420Z,99661.63
2023-04-15T16:27:57.148Z,99669.65
2023-04-15T16:30:28.815Z,99670.65
2023-04-15T16:32:56.530Z,99675.98
2023-04-15T16:35:23.537Z,99673.30
2023-04-15T16:37:50.254Z,99664.88
2023-04-15T16:40:17.142Z,99659.13
2023-04-15T16:42:49.947Z,99657.48
2023-04-15T16:45:19.723Z,99669.11
2023-04-15T16:47:46.437Z,99671.12
2023-04-15T16:50:13.019Z,99665.41
2023-04-15T16:52:40.087Z,99679.27
2023-04-15T16:55:06.829Z,99684.82
2023-04-15T16:58:00.524Z,99690.59
2023-04-15T17:00:21.363Z,99707.34
2023-04-15T17:02:48.088Z,99713.19
2023-04-15T17:05:14.957Z,99720.96
2023-04-15T17:07:44.206Z,99716.29
2023-04-15T17:10:13.187Z,99715.34
2023-04-15T17:13:51.688Z,99718.17
2023-04-15T17:16:19.783Z,99726.75
2023-04-15T17:18:47.986Z,99743.50
2023-04-15T17:21:17.290Z,99751.71
2023-04-15T17:23:45.575Z,99758.44
2023-04-15T17:26:13.830Z,99771.10
2023-04-15T17:28:41.858Z,99780.55
2023-04-15T17:31:11.552Z,99785.42
2023-04-15T17:34:02.499Z,99788.34
2023-04-15T17:36:28.242Z,99777.16
2023-04-15T17:41:05.277Z,99781.60
2023-04-15T17:43:31.951Z,99793.52
2023-04-15T17:45:58.986Z,99801.34
2023-04-15T17:48:25.834Z,99803.05
2023-04-15T17:50:52.798Z,99809.23
2023-04-15T17:53:20.448Z,99797.96
2023-04-15T17:55:47.013Z,99787.02
2023-04-15T17:58:13.627Z,99790.61
2023-04-15T18:00:40.370Z,99790.48
2023-04-15T18:03:07.146Z,99784.57
2023-04-15T18:05:35.462Z,99785.48
2023-04-15T18:08:02.076Z,99779.98
2023-04-15T18:10:29.698Z,99773.50
2023-04-15T18:12:56.607Z,99772.12
2023-04-15T18:15:23.162Z,99765.94
2023-04-15T18:17:50.134Z,99763.64
2023-04-15T18:20:22.823Z,99766.02
2023-04-15T18:22:51.288Z,99771.36
2023-04-15T18:25:18.290Z,99767.28
2023-04-15T18:27:46.810Z,99764.63
2023-04-15T18:30:13.669Z,99763.82
2023-04-15T18:35:29.346Z,99755.73
2023-04-15T18:37:58.004Z,99754.09
2023-04-15T18:40:27.251Z,99750.21
2023-04-15T18:42:55.156Z,99748.30
2023-04-15T18:45:22.087Z,99750.51
2023-04-15T18:47:50.349Z,99748.88
2023-04-15T18:50:17.478Z,99747.87
2023-04-15T18:52:44.532Z,99744.65
2023-04-15T18:55:17.164Z,99744.61
2023-04-15T18:57:46.145Z,99756.47
2023-04-15T19:00:18.692Z,99766.47
2023-04-15T19:02:47.186Z,99775.37
2023-04-15T19:05:16.219Z,99783.71
2023-04-15T19:07:44.434Z,99780.27
2023-04-15T19:10:12.201Z,99780.28
2023-04-15T19:12:42.167Z,99779.15
2023-04-15T19:15:11.804Z,99779.86
2023-04-15T19:17:39.057Z,99780.46
2023-04-15T19:20:08.127Z,99780.38
2023-04-15T19:22:35.993Z,99781.31
2023-04-15T19:25:04.681Z,99775.73
2023-04-15T19:27:31.736Z,99772.35
2023-04-15T19:30:01.287Z,99779.04
2023-04-15T19:32:28.303Z,99774.17
2023-04-15T19:34:54.973Z,99774.21
2023-04-15T19:37:21.979Z,99774.39
2023-04-15T19:39:48.871Z,99776.58
2023-04-15T19:42:16.517Z,99776.28
2023-04-15T19:44:43.271Z,99784.56
2023-04-15T19:47:12.196Z,99787.71
2023-04-15T19:49:39.120Z,99784.65
2023-04-15T19:52:06.450Z,99788.66
2023-04-15T19:54:33.153Z,99789.49
2023-04-15T19:57:01.503Z,99792.81
2023-04-15T19:59:32.354Z,99795.14
2023-04-15T20:02:01.865Z,99791.57
2023-04-15T20:04:31.867Z,99794.06
2023-04-15T20:06:58.545Z,99798.56
2023-04-15T20:09:27.656Z,99791.38
2023-04-15T20:12:45.605Z,99792.11
2023-04-15T20:14:45.703Z,99794.95
2023-04-15T20:17:13.894Z,99788.16
2023-04-15T20:19:41.025Z,99790.98
2023-04-15T20:22:07.607Z,99787.45
2023-04-15T20:24:34.372Z,99791.92
2023-04-15T20:27:01.409Z,99790.89
2023-04-15T20:29:28.216Z,99792.05
2023-04-15T20:31:55.781Z,99797.00
2023-04-15T20:34:22.432Z,99797.56
2023-04-15T20:36:49.121Z,99797.59
2023-04-15T20:39:16.645Z,99789.05
2023-04-15T20:41:43.301Z,99795.64
2023-04-15T20:44:10.746Z,99797.48
2023-04-15T20:46:37.459Z,99795.60
2023-04-15T20:49:04.443Z,99794.72
2023-04-15T20:51:36.893Z,99795.09
2023-04-15T20:54:04.425Z,99791.16
2023-04-15T20:56:31.251Z,99789.55
2023-04-15T20:58:58.891Z,99790.70
2023-04-15T21:01:26.748Z,99792.46
2023-04-15T21:03:53.627Z,99786.97
2023-04-15T21:06:20.376Z,99792.31
2023-04-15T21:08:47.002Z,99787.86
2023-04-15T21:11:18.312Z,99789.07
2023-04-15T21:13:50.946Z,99792.09
2023-04-15T21:16:17.739Z,99800.45
2023-04-15T21:21:17.921Z,99799.30
2023-04-15T21:23:48.040Z,99806.95
2023-04-15T21:26:16.019Z,99806.40
2023-04-15T21:28:44.086Z,99812.52
2023-04-15T21:31:12.137Z,99811.88
2023-04-15T21:33:42.875Z,99811.44
2023-04-15T21:36:11.005Z,99810.54
2023-04-15T21:38:42.100Z,99810.38
2023-04-15T21:41:12.953Z,99813.89
2023-04-15T21:43:40.984Z,99815.96
2023-04-15T21:46:23.685Z,99814.98
2023-04-15T21:48:53.372Z,99817.91
2023-04-15T21:51:21.813Z,99813.79
2023-04-15T21:53:50.487Z,99809.56
2023-04-15T21:56:20.753Z,99814.70
2023-04-15T21:58:48.720Z,99820.71
2023-04-15T22:01:17.286Z,99825.13
2023-04-15T22:03:45.781Z,99824.06
2023-04-15T22:06:14.083Z,99829.00
2023-04-15T22:08:55.113Z,99825.13
2023-04-15T22:11:28.223Z,99830.05
2023-04-15T22:13:57.500Z,99833.42
2023-04-15T22:16:26.773Z,99825.79
2023-04-15T22:18:55.987Z,99829.49
2023-04-15T22:21:24.291Z,99826.66
2023-04-15T22:23:52.820Z,99826.24
2023-04-15T22:26:41.778Z,99831.67
2023-04-15T22:29:09.855Z,99837.02
2023-04-15T22:31:38.037Z,99833.63
2023-04-15T22:34:06.140Z,99832.88
2023-04-15T22:36:37.431Z,99831.16
2023-04-15T22:39:06.199Z,99832.84
2023-04-15T22:41:35.916Z,99832.02
2023-04-15T22:44:03.944Z,99834.36
2023-04-15T22:46:33.932Z,99830.89
2023-04-15T22:49:02.119Z,99828.72
2023-04-15T22:51:30.412Z,99829.92
2023-04-15T22:53:58.622Z,99831.48
2023-04-15T22:56:26.648Z,99829.55
2023-04-15T22:58:54.968Z,99835.30
2023-04-15T23:01:22.921Z,99838.87
2023-04-15T23:03:56.964Z,99840.52
2023-04-15T23:06:32.758Z,99844.84
2023-04-15T23:09:01.333Z,99845.95
2023-04-15T23:11:32.943Z,99847.11
2023-04-15T23:14:01.619Z,99848.61
2023-04-15T23:16:32.064Z,99848.90
2023-04-15T23:19:00.322Z,99847.58
2023-04-15T23:21:30.334Z,99846.35
2023-04-15T23:23:58.391Z,99844.42
2023-04-15T23:26:27.468Z,99850.84
2023-04-15T23:28:58.462Z,99850.40
2023-04-15T23:31:26.483Z,99854.46
2023-04-15T23:33:54.503Z,99853.48
2023-04-15T23:36:22.460Z,99854.14
2023-04-15T23:38:50.574Z,99855.60
2023-04-15T23:41:18.642Z,99856.80
2023-04-15T23:43:51.746Z,99862.27
2023-04-15T23:46:21.507Z,99865.58
2023-04-15T23:48:49.928Z,99860.30
2023-04-15T23:51:17.876Z,99861.89
2023-04-15T23:53:47.197Z,99859.13
2023-04-15T23:56:15.856Z,99858.67
2023-04-15T23:58:43.886Z,99863.11
